createdAt,value
2022-08-23T00:01:47.866Z,4.97
2022-08-23T00:04:20.300Z,4.73
2022-08-23T00:06:50.595Z,4.67
2022-08-23T00:09:20.108Z,4.80
2022-08-23T00:11:51.470Z,4.90
2022-08-23T00:14:22.733Z,4.90
2022-08-23T00:16:52.110Z,5.00
2022-08-23T00:19:23.863Z,4.73
2022-08-23T00:21:54.867Z,4.60
2022-08-23T00:24:24.851Z,4.90
2022-08-23T00:26:58.256Z,4.90
2022-08-23T00:29:29.254Z,4.77
2022-08-23T00:31:58.444Z,4.90
2022-08-23T00:34:28.539Z,5.13
2022-08-23T00:36:57.540Z,5.20
2022-08-23T00:39:26.257Z,4.90
2022-08-23T00:41:59.745Z,5.40
2022-08-23T00:44:52.444Z,5.30
2022-08-23T00:47:41.693Z,5.60
2022-08-23T00:50:24.508Z,5.20
2022-08-23T00:53:01.604Z,5.20
2022-08-23T00:55:30.951Z,6.00
2022-08-23T00:58:00.550Z,5.50
2022-08-23T01:00:29.888Z,5.83
2022-08-23T01:02:58.929Z,5.53
2022-08-23T01:05:35.756Z,5.83
2022-08-23T01:08:04.711Z,5.30
2022-08-23T01:10:38.674Z,5.97
2022-08-23T01:13:15.455Z,5.40
2022-08-23T01:15:49.321Z,5.20
2022-08-23T01:18:20.464Z,5.70
2022-08-23T01:21:06.614Z,5.80
2022-08-23T01:23:44.624Z,5.97
2022-08-23T01:26:21.641Z,6.20
2022-08-23T01:28:52.173Z,5.40
2022-08-23T01:31:23.049Z,5.60
2022-08-23T01:33:56.464Z,5.27
2022-08-23T01:36:25.143Z,5.77
2022-08-23T01:38:55.768Z,5.33
2022-08-23T01:41:24.847Z,5.47
2022-08-23T01:43:54.131Z,5.27
2022-08-23T01:46:27.061Z,5.60
2022-08-23T01:48:57.257Z,5.23
2022-08-23T01:51:28.002Z,5.60
2022-08-23T01:53:58.315Z,5.57
2022-08-23T01:56:39.275Z,5.47
2022-08-23T01:59:13.900Z,5.20
2022-08-23T02:01:47.664Z,5.67
2022-08-23T02:04:16.869Z,5.17
2022-08-23T02:06:45.435Z,5.50
2022-08-23T02:09:20.193Z,5.53
2022-08-23T02:11:49.167Z,5.70
2022-08-23T02:14:20.508Z,5.80
2022-08-23T02:17:03.009Z,5.60
2022-08-23T02:19:34.500Z,5.33
2022-08-23T02:22:05.111Z,5.87
2022-08-23T02:24:35.218Z,5.63
2022-08-23T02:27:06.767Z,5.53
2022-08-23T02:29:40.252Z,5.97
2022-08-23T02:32:13.544Z,5.50
2022-08-23T02:34:44.220Z,5.70
2022-08-23T02:37:21.008Z,5.80
2022-08-23T02:39:51.543Z,5.77
2022-08-23T02:42:20.296Z,6.20
2022-08-23T02:44:48.900Z,5.97
2022-08-23T02:47:18.369Z,6.30
2022-08-23T02:49:58.440Z,6.63
2022-08-23T02:52:27.058Z,5.80
2022-08-23T02:54:58.318Z,6.30
2022-08-23T02:57:27.715Z,6.50
2022-08-23T03:00:00.166Z,6.33
2022-08-23T03:02:28.960Z,6.17
2022-08-23T03:04:57.562Z,6.40
2022-08-23T03:07:26.503Z,6.37
2022-08-23T03:09:56.509Z,6.50
2022-08-23T03:12:25.609Z,6.40
2022-08-23T03:14:56.475Z,6.97
2022-08-23T03:17:26.333Z,6.73
2022-08-23T03:19:55.461Z,6.20
2022-08-23T03:22:25.728Z,7.20
2022-08-23T03:24:59.695Z,6.77
2022-08-23T03:27:38.432Z,6.67
2022-08-23T03:30:19.245Z,6.93
2022-08-23T03:32:53.025Z,6.70
2022-08-23T03:35:21.520Z,7.40
2022-08-23T03:37:55.064Z,7.37
2022-08-23T03:40:25.966Z,7.30
2022-08-23T03:42:54.604Z,7.07
2022-08-23T03:45:25.985Z,7.20
2022-08-23T03:47:54.696Z,7.07
2022-08-23T03:50:23.332Z,7.63
2022-08-23T03:52:52.862Z,7.57
2022-08-23T03:55:22.160Z,7.20
2022-08-23T03:57:53.066Z,7.23
2022-08-23T04:00:22.948Z,7.33
2022-08-23T04:02:54.012Z,7.60
2022-08-23T04:05:24.058Z,7.53
2022-08-23T04:07:52.625Z,7.67
2022-08-23T04:10:23.906Z,7.60
2022-08-23T04:12:56.709Z,8.03
2022-08-23T04:15:26.907Z,7.87
2022-08-23T04:17:55.596Z,8.50
2022-08-23T04:20:25.841Z,7.80
2022-08-23T04:23:03.072Z,8.10
2022-08-23T04:25:35.961Z,7.50
2022-08-23T04:28:07.511Z,7.40
2022-08-23T04:30:36.302Z,7.50
2022-08-23T04:33:10.618Z,7.37
2022-08-23T04:35:41.527Z,7.30
2022-08-23T04:38:24.344Z,7.80
2022-08-23T04:41:14.043Z,7.67
2022-08-23T04:43:45.187Z,8.17
2022-08-23T04:46:16.651Z,8.17
2022-08-23T04:48:48.622Z,8.47
2022-08-23T04:51:19.242Z,7.90
2022-08-23T04:53:48.123Z,8.03
2022-08-23T04:56:34.717Z,7.73
2022-08-23T04:59:05.938Z,8.00
2022-08-23T05:01:35.813Z,7.93
2022-08-23T05:04:05.926Z,8.20
2022-08-23T05:06:37.171Z,7.97
2022-08-23T05:09:06.560Z,7.27
2022-08-23T05:11:37.473Z,7.90
2022-08-23T05:14:07.879Z,7.43
2022-08-23T05:16:36.434Z,6.90
2022-08-23T05:19:10.655Z,6.77
2022-08-23T05:21:44.745Z,6.87
2022-08-23T05:24:14.050Z,7.00
2022-08-23T05:26:44.653Z,7.00
2022-08-23T05:29:15.382Z,7.23
2022-08-23T05:31:50.842Z,7.30
2022-08-23T05:34:22.683Z,7.43
2022-08-23T05:37:00.595Z,7.23
2022-08-23T05:39:36.766Z,7.00
2022-08-23T05:42:11.487Z,7.07
2022-08-23T05:44:41.490Z,7.13
2022-08-23T05:47:15.151Z,6.90
2022-08-23T05:49:54.962Z,6.50
2022-08-23T05:52:24.664Z,7.20
2022-08-23T05:54:53.108Z,7.37
2022-08-23T05:57:47.603Z,7.10
2022-08-23T06:00:17.689Z,7.90
2022-08-23T06:02:49.373Z,8.10
2022-08-23T06:05:20.720Z,7.43
2022-08-23T06:07:50.680Z,7.53
2022-08-23T06:10:21.657Z,7.73
2022-08-23T06:13:04.283Z,7.80
2022-08-23T06:15:34.252Z,7.73
2022-08-23T06:18:03.173Z,7.53
2022-08-23T06:20:32.673Z,7.50
2022-08-23T06:23:12.084Z,6.80
2022-08-23T06:25:42.409Z,7.33
2022-08-23T06:28:16.813Z,7.23
2022-08-23T06:30:47.129Z,7.07
2022-08-23T06:33:21.802Z,7.10
2022-08-23T06:36:03.393Z,7.20
2022-08-23T06:38:51.084Z,7.47
2022-08-23T06:42:00.812Z,7.10
2022-08-23T06:44:35.204Z,7.27
2022-08-23T06:47:18.461Z,7.70
2022-08-23T06:49:58.201Z,6.73
2022-08-23T06:53:06.992Z,6.90
2022-08-23T06:56:11.279Z,6.90
2022-08-23T06:58:54.510Z,6.57
2022-08-23T07:01:50.111Z,6.50
2022-08-23T07:04:30.075Z,6.60
2022-08-23T07:07:11.958Z,6.40
2022-08-23T07:09:44.737Z,6.40
2022-08-23T07:12:13.376Z,6.20
2022-08-23T07:14:44.816Z,6.57
2022-08-23T07:17:14.644Z,6.40
2022-08-23T07:19:45.708Z,6.30
2022-08-23T07:22:17.158Z,6.23
2022-08-23T07:24:46.128Z,5.97
2022-08-23T07:27:18.174Z,6.20
2022-08-23T07:29:56.361Z,5.97
2022-08-23T07:32:31.055Z,6.07
2022-08-23T07:35:07.024Z,5.73
2022-08-23T07:37:37.958Z,5.50
2022-08-23T07:40:09.294Z,5.90
2022-08-23T07:43:08.778Z,5.65
2022-08-23T07:45:40.781Z,5.57
2022-08-23T07:48:11.852Z,5.43
2022-08-23T07:51:04.016Z,5.40
2022-08-23T07:53:38.072Z,5.30
2022-08-23T07:56:11.265Z,5.82
2022-08-23T07:59:05.309Z,5.20
2022-08-23T08:01:43.933Z,5.35
2022-08-23T08:04:13.541Z,4.80
2022-08-23T08:07:04.849Z,5.18
2022-08-23T08:09:36.423Z,5.15
2022-08-23T08:12:05.988Z,4.47
2022-08-23T08:14:36.228Z,5.13
2022-08-23T08:17:08.551Z,4.80
2022-08-23T08:20:12.568Z,4.63
2022-08-23T08:23:15.121Z,4.82
2022-08-23T08:26:10.255Z,4.90
2022-08-23T08:28:43.325Z,4.18
2022-08-23T08:31:13.387Z,4.60
2022-08-23T08:33:42.224Z,4.75
2022-08-23T08:36:30.054Z,4.32
2022-08-23T08:39:00.865Z,4.00
2022-08-23T08:42:04.526Z,4.40
2022-08-23T08:44:46.230Z,4.40
2022-08-23T08:47:23.492Z,4.20
2022-08-23T08:50:00.246Z,4.10
2022-08-23T08:52:35.354Z,4.47
2022-08-23T08:55:15.804Z,4.30
2022-08-23T08:57:49.365Z,4.50
2022-08-23T09:00:23.454Z,3.95
2022-08-23T09:02:53.064Z,4.20
2022-08-23T09:05:26.961Z,4.30
2022-08-23T09:08:06.814Z,3.60
2022-08-23T09:10:58.782Z,4.00
2022-08-23T09:13:46.464Z,3.70
2022-08-23T09:16:31.087Z,4.00
2022-08-23T09:19:02.438Z,3.60
2022-08-23T09:21:49.610Z,4.57
2022-08-23T09:24:22.757Z,3.88
2022-08-23T09:27:18.366Z,4.10
2022-08-23T09:29:57.268Z,3.90
2022-08-23T09:32:34.803Z,3.55
2022-08-23T09:35:16.176Z,3.30
2022-08-23T09:37:54.950Z,3.70
2022-08-23T09:40:34.467Z,2.92
2022-08-23T09:43:14.124Z,3.95
2022-08-23T09:45:53.834Z,3.60
2022-08-23T09:48:40.039Z,3.90
2022-08-23T09:51:23.793Z,3.40
2022-08-23T09:54:06.644Z,3.10
2022-08-23T09:56:39.905Z,2.60
2022-08-23T09:59:40.361Z,3.30
2022-08-23T10:02:19.461Z,2.88
2022-08-23T10:05:03.061Z,2.95
2022-08-23T10:07:38.406Z,2.78
2022-08-23T10:10:19.912Z,2.35
2022-08-23T10:12:59.160Z,2.70
2022-08-23T10:15:45.189Z,3.22
2022-08-23T10:18:29.654Z,3.22
2022-08-23T10:21:06.255Z,3.03
2022-08-23T10:23:53.662Z,3.10
2022-08-23T10:26:28.744Z,3.17
2022-08-23T10:29:21.441Z,3.17
2022-08-23T10:31:59.725Z,3.10
2022-08-23T10:34:50.922Z,3.22
2022-08-23T10:37:52.311Z,2.70
2022-08-23T10:40:32.979Z,3.50
2022-08-23T10:43:15.192Z,3.20
2022-08-23T10:45:50.170Z,3.05
2022-08-23T10:48:33.281Z,3.60
2022-08-23T10:51:05.501Z,3.10
2022-08-23T10:53:46.226Z,2.97
2022-08-23T10:56:19.430Z,2.90
2022-08-23T10:58:57.063Z,3.08
2022-08-23T11:01:41.376Z,3.05
2022-08-23T11:04:25.449Z,2.78
2022-08-23T11:07:19.736Z,3.38
2022-08-23T11:09:58.695Z,3.25
2022-08-23T11:12:35.300Z,3.22
2022-08-23T11:15:22.990Z,3.25
2022-08-23T11:18:09.984Z,3.22
2022-08-23T11:21:10.950Z,2.92
2022-08-23T11:23:54.552Z,2.78
2022-08-23T11:27:26.102Z,3.15
2022-08-23T11:30:02.612Z,2.75
2022-08-23T11:33:04.143Z,2.90
2022-08-23T11:35:45.654Z,3.20
2022-08-23T11:38:38.884Z,3.47
2022-08-23T11:41:23.437Z,3.35
2022-08-23T11:44:24.809Z,2.70
2022-08-23T11:47:12.264Z,3.20
2022-08-23T11:50:25.090Z,2.72
2022-08-23T11:53:24.599Z,3.10
2022-08-23T11:56:46.376Z,3.08
2022-08-23T11:59:43.120Z,3.00
2022-08-23T12:02:47.547Z,3.22
2022-08-23T12:05:32.675Z,2.80
2022-08-23T12:08:49.198Z,2.70
2022-08-23T12:11:20.653Z,2.83
2022-08-23T12:13:54.564Z,2.78
2022-08-23T12:16:34.179Z,2.63
2022-08-23T12:19:10.078Z,2.42
2022-08-23T12:21:53.490Z,2.60
2022-08-23T12:24:32.323Z,2.92
2022-08-23T12:27:18.131Z,3.00
2022-08-23T12:29:56.873Z,3.30
2022-08-23T12:32:44.291Z,2.70
2022-08-23T12:35:33.116Z,2.58
2022-08-23T12:38:08.875Z,2.90
2022-08-23T12:40:42.588Z,3.00
2022-08-23T12:43:24.550Z,3.10
2022-08-23T12:45:55.328Z,2.50
2022-08-23T12:48:26.513Z,2.72
2022-08-23T12:50:57.807Z,2.50
2022-08-23T12:53:32.279Z,2.40
2022-08-23T12:56:03.767Z,2.33
2022-08-23T12:58:38.289Z,2.60
2022-08-23T13:01:10.088Z,2.70
2022-08-23T13:03:53.614Z,2.72
2022-08-23T13:06:53.258Z,2.40
2022-08-23T13:09:32.078Z,2.60
2022-08-23T13:12:02.551Z,2.25
2022-08-23T13:14:43.107Z,2.25
2022-08-23T13:17:23.327Z,2.05
2022-08-23T13:20:12.880Z,2.22
2022-08-23T13:23:00.920Z,2.13
2022-08-23T13:25:33.386Z,1.92
2022-08-23T13:28:04.676Z,2.40
2022-08-23T13:30:36.648Z,2.00
2022-08-23T13:33:24.323Z,2.40
2022-08-23T13:36:06.554Z,2.10
2022-08-23T13:38:43.970Z,2.05
2022-08-23T13:41:27.792Z,2.40
2022-08-23T13:43:56.462Z,2.30
2022-08-23T13:46:29.408Z,2.25
2022-08-23T13:49:01.756Z,2.75
2022-08-23T13:51:36.598Z,2.20
2022-08-23T13:54:08.617Z,2.20
2022-08-23T13:56:41.730Z,2.38
2022-08-23T13:59:20.928Z,2.72
2022-08-23T14:01:50.879Z,2.35
2022-08-23T14:04:19.441Z,2.60
2022-08-23T14:06:49.038Z,2.60
2022-08-23T14:09:18.183Z,2.40
2022-08-23T14:11:48.805Z,2.60
2022-08-23T14:14:17.460Z,2.45
2022-08-23T14:16:46.206Z,2.38
2022-08-23T14:19:16.415Z,2.30
2022-08-23T14:21:47.240Z,2.42
2022-08-23T14:24:15.821Z,2.55
2022-08-23T14:26:50.274Z,2.53
2022-08-23T14:29:22.491Z,2.45
2022-08-23T14:31:52.385Z,2.50
2022-08-23T14:34:22.888Z,2.28
2022-08-23T14:39:42.033Z,2.30
2022-08-23T14:42:11.088Z,2.40
2022-08-23T14:44:39.612Z,2.40
2022-08-23T14:47:08.277Z,2.20
2022-08-23T14:49:38.597Z,2.40
2022-08-23T14:52:07.609Z,2.50
2022-08-23T14:54:36.317Z,2.20
2022-08-23T14:57:05.278Z,2.30
2022-08-23T14:59:33.828Z,2.80
2022-08-23T15:02:02.519Z,2.95
2022-08-23T15:04:34.406Z,2.70
2022-08-23T15:07:20.987Z,2.75
2022-08-23T15:09:50.561Z,2.67
2022-08-23T15:15:12.151Z,2.90
2022-08-23T15:17:48.021Z,2.53
2022-08-23T15:20:16.665Z,2.60
2022-08-23T15:22:52.374Z,2.60
2022-08-23T15:25:25.931Z,2.50
2022-08-23T15:27:54.664Z,2.70
2022-08-23T15:30:24.973Z,2.10
2022-08-23T15:32:56.522Z,2.88
2022-08-23T15:35:26.592Z,2.40
2022-08-23T15:37:57.728Z,2.70
2022-08-23T15:40:27.148Z,2.70
2022-08-23T15:42:55.990Z,2.83
2022-08-23T15:45:25.011Z,2.60
2022-08-23T15:47:56.447Z,2.90
2022-08-23T15:50:29.413Z,2.85
2022-08-23T15:52:59.354Z,2.60
2022-08-23T15:55:32.323Z,2.60
2022-08-23T15:58:01.132Z,2.72
2022-08-23T16:00:29.745Z,2.65
2022-08-23T16:03:18.859Z,2.35
2022-08-23T16:05:49.961Z,2.78
2022-08-23T16:08:24.835Z,2.88
2022-08-23T16:10:54.534Z,3.10
2022-08-23T16:13:23.731Z,3.03
2022-08-23T16:15:52.348Z,2.72
2022-08-23T16:18:21.221Z,2.95
2022-08-23T16:20:49.726Z,2.70
2022-08-23T16:23:26.556Z,2.80
2022-08-23T16:25:57.956Z,3.03
2022-08-23T16:28:29.761Z,2.60
2022-08-23T16:30:58.550Z,2.60
2022-08-23T16:33:27.179Z,2.67
2022-08-23T16:35:55.746Z,2.78
2022-08-23T16:38:25.684Z,2.50
2022-08-23T16:40:54.244Z,2.47
2022-08-23T16:43:25.362Z,2.90
2022-08-23T16:45:59.961Z,2.60
2022-08-23T16:48:31.569Z,2.45
2022-08-23T16:51:00.191Z,2.60
2022-08-23T16:53:30.238Z,2.75
2022-08-23T16:55:58.793Z,2.67
2022-08-23T16:58:27.360Z,2.70
2022-08-23T17:00:55.915Z,2.65
2022-08-23T17:03:27.153Z,2.60
2022-08-23T17:05:55.887Z,2.97
2022-08-23T17:08:24.406Z,3.00
2022-08-23T17:10:54.229Z,2.75
2022-08-23T17:13:23.627Z,2.80
2022-08-23T17:15:52.085Z,2.70
2022-08-23T17:18:20.564Z,2.80
2022-08-23T17:20:50.071Z,2.60
2022-08-23T17:23:18.776Z,2.70
2022-08-23T17:25:48.696Z,3.00
2022-08-23T17:28:19.331Z,3.10
2022-08-23T17:30:47.758Z,2.97
2022-08-23T17:33:16.345Z,3.17
2022-08-23T17:35:45.660Z,3.10
2022-08-23T17:38:15.037Z,4.20
2022-08-23T17:40:44.570Z,3.55
2022-08-23T17:43:13.357Z,3.75
2022-08-23T17:45:45.049Z,3.35
2022-08-23T17:48:15.713Z,3.30
2022-08-23T17:50:44.881Z,3.00
2022-08-23T17:53:14.443Z,3.05
2022-08-23T17:55:43.721Z,3.15
2022-08-23T17:58:13.548Z,3.20
2022-08-23T18:00:44.026Z,3.17
2022-08-23T18:03:12.872Z,3.92
2022-08-23T18:05:43.057Z,3.55
2022-08-23T18:08:11.634Z,3.60
2022-08-23T18:10:40.496Z,3.30
2022-08-23T18:13:09.027Z,2.97
2022-08-23T18:15:37.750Z,4.55
2022-08-23T18:18:08.046Z,3.50
2022-08-23T18:20:36.748Z,3.50
2022-08-23T18:23:05.978Z,6.35
2022-08-23T18:25:34.651Z,3.58
2022-08-23T18:28:09.852Z,3.78
2022-08-23T18:30:41.182Z,3.67
2022-08-23T18:33:12.619Z,3.70
2022-08-23T18:35:42.034Z,3.42
2022-08-23T18:38:12.608Z,4.28
2022-08-23T18:40:46.411Z,4.00
2022-08-23T18:43:18.478Z,4.70
2022-08-23T18:45:49.428Z,4.05
2022-08-23T18:48:20.328Z,4.53
2022-08-23T18:50:49.899Z,3.83
2022-08-23T18:53:20.462Z,4.10
2022-08-23T18:55:51.045Z,4.05
2022-08-23T18:58:21.030Z,4.10
2022-08-23T19:00:51.603Z,3.75
2022-08-23T19:03:21.672Z,3.92
2022-08-23T19:05:50.328Z,3.90
2022-08-23T19:08:19.465Z,4.60
2022-08-23T19:10:48.474Z,4.35
2022-08-23T19:13:17.098Z,6.55
2022-08-23T19:15:45.644Z,5.32
2022-08-23T19:18:14.667Z,4.60
2022-08-23T19:20:44.622Z,4.18
2022-08-23T19:23:13.861Z,4.47
2022-08-23T19:25:45.396Z,3.97
2022-08-23T19:28:19.666Z,4.85
2022-08-23T19:30:50.066Z,6.90
2022-08-23T19:33:18.900Z,4.45
2022-08-23T19:35:49.841Z,4.40
2022-08-23T19:38:21.091Z,5.75
2022-08-23T19:40:50.848Z,4.00
2022-08-23T19:43:19.413Z,3.80
2022-08-23T19:45:48.419Z,4.20
2022-08-23T19:48:17.058Z,4.20
2022-08-23T19:50:45.546Z,3.97
2022-08-23T19:53:15.605Z,4.05
2022-08-23T19:55:45.701Z,3.95
2022-08-23T19:58:15.796Z,4.00
2022-08-23T20:00:44.225Z,4.28
2022-08-23T20:03:13.267Z,3.95
2022-08-23T20:05:42.150Z,4.20
2022-08-23T20:08:10.646Z,4.25
2022-08-23T20:10:40.541Z,3.80
2022-08-23T20:13:09.028Z,4.05
2022-08-23T20:15:39.547Z,5.30
2022-08-23T20:18:08.300Z,4.30
2022-08-23T20:20:36.928Z,4.15
2022-08-23T20:23:22.980Z,4.00
2022-08-23T20:25:52.910Z,3.95
2022-08-23T20:28:26.138Z,4.65
2022-08-23T20:30:54.944Z,4.75
2022-08-23T20:33:23.685Z,4.47
2022-08-23T20:35:52.240Z,4.82
2022-08-23T20:38:33.233Z,4.70
2022-08-23T20:41:03.595Z,4.30
2022-08-23T20:43:32.909Z,4.45
2022-08-23T20:46:01.477Z,4.40
2022-08-23T20:48:30.898Z,5.90
2022-08-23T20:51:01.308Z,5.90
2022-08-23T20:53:29.939Z,5.90
2022-08-23T20:55:59.677Z,5.63
2022-08-23T20:58:29.803Z,5.80
2022-08-23T21:00:58.684Z,5.10
2022-08-23T21:03:27.284Z,4.60
2022-08-23T21:06:04.593Z,4.90
2022-08-23T21:08:33.927Z,4.40
2022-08-23T21:11:03.630Z,4.50
2022-08-23T21:13:35.035Z,4.67
2022-08-23T21:16:03.802Z,4.37
2022-08-23T21:18:32.381Z,4.90
2022-08-23T21:21:00.839Z,4.50
2022-08-23T21:23:29.370Z,4.43
2022-08-23T21:25:59.174Z,4.87
2022-08-23T21:28:29.135Z,4.80
2022-08-23T21:31:05.682Z,4.67
2022-08-23T21:33:38.005Z,4.70
2022-08-23T21:36:08.973Z,4.57
2022-08-23T21:38:37.926Z,4.60
2022-08-23T21:41:09.638Z,4.90
2022-08-23T21:43:39.409Z,4.67
2022-08-23T21:46:09.351Z,4.80
2022-08-23T21:48:37.807Z,5.27
2022-08-23T21:51:06.423Z,4.80
2022-08-23T21:53:34.919Z,4.73
2022-08-23T21:56:03.508Z,4.57
2022-08-23T21:58:31.990Z,4.83
2022-08-23T22:01:00.650Z,4.77
2022-08-23T22:03:30.511Z,4.60
2022-08-23T22:05:58.956Z,5.13
2022-08-23T22:08:27.467Z,5.00
2022-08-23T22:10:57.535Z,4.70
2022-08-23T22:13:28.767Z,5.10
2022-08-23T22:15:57.594Z,5.00
2022-08-23T22:18:26.163Z,4.40
2022-08-23T22:20:58.286Z,5.30
2022-08-23T22:23:27.789Z,4.90
2022-08-23T22:25:57.779Z,5.00
2022-08-23T22:28:26.353Z,5.77
2022-08-23T22:31:01.075Z,5.57
2022-08-23T22:33:30.316Z,5.37
2022-08-23T22:36:04.618Z,5.10
2022-08-23T22:38:33.145Z,4.93
2022-08-23T22:41:01.721Z,5.37
2022-08-23T22:43:30.426Z,5.20
2022-08-23T22:46:01.219Z,4.80
2022-08-23T22:48:32.519Z,5.30
2022-08-23T22:51:12.514Z,5.63
2022-08-23T22:53:42.963Z,5.33
2022-08-23T22:56:14.096Z,5.00
2022-08-23T22:58:42.670Z,5.27
2022-08-23T23:01:18.694Z,5.40
2022-08-23T23:03:49.555Z,5.50
2022-08-23T23:06:21.494Z,4.83
2022-08-23T23:08:50.492Z,5.57
2022-08-23T23:11:20.551Z,5.60
2022-08-23T23:13:49.127Z,5.40
2022-08-23T23:16:20.658Z,5.37
2022-08-23T23:19:03.922Z,5.17
2022-08-23T23:21:35.939Z,6.07
2022-08-23T23:24:05.780Z,5.40
2022-08-23T23:26:34.622Z,6.27
2022-08-23T23:29:03.292Z,5.90
2022-08-23T23:31:33.806Z,5.93
2022-08-23T23:34:02.869Z,6.10
2022-08-23T23:36:31.952Z,6.07
2022-08-23T23:39:03.386Z,6.10
2022-08-23T23:41:32.265Z,6.30
2022-08-23T23:44:00.893Z,6.17
2022-08-23T23:46:29.802Z,5.73
2022-08-23T23:48:58.599Z,5.70
2022-08-23T23:51:30.150Z,6.10
2022-08-23T23:54:01.059Z,6.10
2022-08-23T23:56:32.814Z,6.50
2022-08-23T23:59:01.416Z,6.20
